createdAt,value
2022-11-05T00:02:14.821Z,81
2022-11-05T00:05:36.082Z,82
2022-11-05T00:06:43.195Z,82
2022-11-05T00:08:57.075Z,82
2022-11-05T00:10:04.026Z,83
2022-11-05T00:11:16.765Z,83
2022-11-05T00:12:18.224Z,83
2022-11-05T00:13:24.781Z,83
2022-11-05T00:14:31.974Z,83
2022-11-05T00:15:39.053Z,84
2022-11-05T00:16:46.123Z,84
2022-11-05T00:17:53.176Z,84
2022-11-05T00:18:59.799Z,84
2022-11-05T00:21:14.002Z,84
2022-11-05T00:22:20.546Z,84
2022-11-05T00:23:27.735Z,84
2022-11-05T00:24:34.884Z,84
2022-11-05T00:26:49.634Z,84
2022-11-05T00:27:56.107Z,84
2022-11-05T00:29:02.715Z,85
2022-11-05T00:30:09.795Z,85
2022-11-05T00:31:16.921Z,85
2022-11-05T00:32:23.985Z,85
2022-11-05T00:33:31.084Z,85
2022-11-05T00:34:37.736Z,85
2022-11-05T00:35:44.894Z,85
2022-11-05T00:36:51.918Z,85
2022-11-05T00:37:59.071Z,85
2022-11-05T00:39:06.227Z,85
2022-11-05T00:40:12.794Z,85
2022-11-05T00:41:19.873Z,85
2022-11-05T00:42:26.899Z,85
2022-11-05T00:43:34.065Z,86
2022-11-05T00:44:41.165Z,86
2022-11-05T00:45:47.814Z,86
2022-11-05T00:46:59.763Z,86
2022-11-05T00:48:01.944Z,86
2022-11-05T00:49:09.102Z,86
2022-11-05T00:50:16.327Z,86
2022-11-05T00:51:22.775Z,86
2022-11-05T00:52:29.857Z,86
2022-11-05T00:54:44.077Z,86
2022-11-05T00:55:51.163Z,86
2022-11-05T00:57:03.470Z,86
2022-11-05T00:58:04.875Z,86
2022-11-05T00:59:11.955Z,86
2022-11-05T01:00:19.105Z,86
2022-11-05T01:01:26.438Z,86
2022-11-05T01:02:32.942Z,86
2022-11-05T01:03:39.323Z,86
2022-11-05T01:04:46.997Z,87
2022-11-05T01:05:54.114Z,87
2022-11-05T01:07:01.159Z,87
2022-11-05T01:08:07.782Z,87
2022-11-05T01:09:14.871Z,87
2022-11-05T01:10:21.926Z,87
2022-11-05T01:12:36.265Z,87
2022-11-05T01:13:42.729Z,87
2022-11-05T01:14:49.868Z,87
2022-11-05T01:15:57.027Z,87
2022-11-05T01:17:04.105Z,87
2022-11-05T01:18:11.152Z,87
2022-11-05T01:19:17.803Z,87
2022-11-05T01:20:24.871Z,87
2022-11-05T01:21:32.049Z,87
2022-11-05T01:22:39.107Z,87
2022-11-05T01:23:46.236Z,87
2022-11-05T01:24:52.734Z,88
2022-11-05T01:25:59.903Z,88
2022-11-05T01:27:07.069Z,88
2022-11-05T01:28:13.595Z,88
2022-11-05T01:29:20.685Z,88
2022-11-05T01:30:28.366Z,88
2022-11-05T01:31:34.976Z,88
2022-11-05T01:32:43.862Z,88
2022-11-05T01:33:49.104Z,88
2022-11-05T01:34:55.738Z,88
2022-11-05T01:36:02.860Z,88
2022-11-05T01:37:09.895Z,88
2022-11-05T01:38:17.005Z,88
2022-11-05T01:39:24.150Z,88
2022-11-05T01:40:30.714Z,88
2022-11-05T01:41:37.775Z,88
2022-11-05T01:42:44.906Z,89
2022-11-05T01:43:52.023Z,89
2022-11-05T01:44:58.629Z,88
2022-11-05T01:46:05.756Z,88
2022-11-05T01:47:12.765Z,88
2022-11-05T01:49:27.034Z,88
2022-11-05T01:50:34.130Z,88
2022-11-05T01:51:40.724Z,89
2022-11-05T01:52:47.848Z,89
2022-11-05T01:53:54.922Z,89
2022-11-05T01:55:02.036Z,89
2022-11-05T01:56:08.692Z,89
2022-11-05T01:57:15.769Z,89
2022-11-05T01:58:22.826Z,89
2022-11-05T01:59:29.943Z,90
2022-11-05T02:00:37.081Z,89
2022-11-05T02:01:44.259Z,89
2022-11-05T02:02:50.815Z,89
2022-11-05T02:03:57.994Z,89
2022-11-05T02:05:04.965Z,89
2022-11-05T02:06:12.106Z,89
2022-11-05T02:07:19.153Z,89
2022-11-05T02:08:25.763Z,89
2022-11-05T02:09:32.813Z,90
2022-11-05T02:10:39.973Z,89
2022-11-05T02:11:47.122Z,90
2022-11-05T02:12:54.160Z,90
2022-11-05T02:14:00.749Z,90
2022-11-05T02:16:15.026Z,91
2022-11-05T02:17:22.017Z,91
2022-11-05T02:18:29.160Z,91
2022-11-05T02:19:35.746Z,91
2022-11-05T02:20:44.821Z,91
2022-11-05T02:21:50.000Z,91
2022-11-05T02:22:57.071Z,91
2022-11-05T02:25:10.767Z,91
2022-11-05T02:27:25.015Z,91
2022-11-05T02:28:32.068Z,91
2022-11-05T02:29:39.147Z,91
2022-11-05T02:30:45.801Z,91
2022-11-05T02:31:52.891Z,91
2022-11-05T02:33:00.007Z,92
2022-11-05T02:34:07.651Z,91
2022-11-05T02:35:14.188Z,92
2022-11-05T02:36:20.775Z,91
2022-11-05T02:37:27.906Z,92
2022-11-05T02:38:34.995Z,92
2022-11-05T02:39:42.109Z,92
2022-11-05T02:40:49.187Z,92
2022-11-05T02:41:59.224Z,92
2022-11-05T02:43:02.900Z,92
2022-11-05T02:44:10.005Z,92
2022-11-05T02:45:17.092Z,92
2022-11-05T02:46:24.239Z,92
2022-11-05T02:47:30.806Z,92
2022-11-05T02:48:37.916Z,92
2022-11-05T02:49:44.999Z,91
2022-11-05T02:50:52.091Z,91
2022-11-05T02:53:05.846Z,91
2022-11-05T02:54:13.877Z,91
2022-11-05T02:55:23.691Z,91
2022-11-05T02:56:27.134Z,91
2022-11-05T02:57:33.685Z,91
2022-11-05T02:58:40.811Z,91
2022-11-05T02:59:47.915Z,91
2022-11-05T03:00:58.307Z,91
2022-11-05T03:02:02.236Z,91
2022-11-05T03:03:09.068Z,91
2022-11-05T03:04:15.812Z,91
2022-11-05T03:05:22.896Z,91
2022-11-05T03:06:30.240Z,91
2022-11-05T03:08:43.672Z,91
2022-11-05T03:09:50.834Z,91
2022-11-05T03:10:57.946Z,90
2022-11-05T03:12:05.176Z,90
2022-11-05T03:13:12.623Z,90
2022-11-05T03:14:18.713Z,90
2022-11-05T03:15:25.829Z,90
2022-11-05T03:17:40.090Z,90
2022-11-05T03:21:00.796Z,90
2022-11-05T03:22:07.973Z,90
2022-11-05T03:23:15.093Z,90
2022-11-05T03:24:22.108Z,90
2022-11-05T03:25:28.735Z,90
2022-11-05T03:26:35.838Z,90
2022-11-05T03:27:42.963Z,90
2022-11-05T03:28:50.149Z,90
2022-11-05T03:29:57.167Z,90
2022-11-05T03:31:03.753Z,90
2022-11-05T03:32:10.915Z,90
2022-11-05T03:33:17.985Z,90
2022-11-05T03:34:25.139Z,89
2022-11-05T03:35:32.256Z,89
2022-11-05T03:36:38.777Z,89
2022-11-05T03:37:46.405Z,89
2022-11-05T03:38:52.989Z,89
2022-11-05T03:40:00.227Z,89
2022-11-05T03:41:07.204Z,89
2022-11-05T03:42:13.765Z,89
2022-11-05T03:43:20.877Z,89
2022-11-05T03:44:27.998Z,89
2022-11-05T03:45:35.215Z,89
2022-11-05T03:46:42.175Z,89
2022-11-05T03:47:48.805Z,89
2022-11-05T03:50:02.996Z,89
2022-11-05T03:51:10.093Z,89
2022-11-05T03:52:17.204Z,89
2022-11-05T03:53:23.801Z,89
2022-11-05T03:54:30.866Z,89
2022-11-05T03:55:38.019Z,89
2022-11-05T03:56:45.143Z,89
2022-11-05T03:57:52.185Z,89
2022-11-05T03:58:59.340Z,89
2022-11-05T04:00:05.917Z,89
2022-11-05T04:01:13.074Z,89
2022-11-05T04:02:20.323Z,89
2022-11-05T04:03:27.226Z,89
2022-11-05T04:04:33.767Z,88
2022-11-05T04:05:40.911Z,88
2022-11-05T04:06:48.035Z,88
2022-11-05T04:07:55.145Z,88
2022-11-05T04:09:01.706Z,88
2022-11-05T04:10:08.796Z,88
2022-11-05T04:11:15.983Z,88
2022-11-05T04:12:23.023Z,88
2022-11-05T04:13:30.118Z,88
2022-11-05T04:14:36.736Z,88
2022-11-05T04:15:43.764Z,88
2022-11-05T04:16:50.987Z,88
2022-11-05T04:17:58.005Z,89
2022-11-05T04:19:05.155Z,88
2022-11-05T04:20:13.071Z,88
2022-11-05T04:21:18.832Z,89
2022-11-05T04:23:32.998Z,89
2022-11-05T04:24:40.170Z,89
2022-11-05T04:25:46.765Z,89
2022-11-05T04:26:53.973Z,89
2022-11-05T04:28:00.881Z,89
2022-11-05T04:29:08.134Z,89
2022-11-05T04:31:21.744Z,89
2022-11-05T04:32:28.858Z,89
2022-11-05T04:33:35.966Z,89
2022-11-05T04:34:43.032Z,89
2022-11-05T04:35:50.129Z,89
2022-11-05T04:36:56.763Z,89
2022-11-05T04:38:03.856Z,89
2022-11-05T04:39:10.944Z,89
2022-11-05T04:40:18.042Z,89
2022-11-05T04:41:25.193Z,89
2022-11-05T04:42:31.692Z,89
2022-11-05T04:43:38.841Z,89
2022-11-05T04:45:53.012Z,89
2022-11-05T04:47:00.229Z,89
2022-11-05T04:48:06.774Z,89
2022-11-05T04:49:13.851Z,89
2022-11-05T04:51:28.123Z,89
2022-11-05T04:52:35.175Z,89
2022-11-05T04:53:41.733Z,89
2022-11-05T04:54:48.855Z,89
2022-11-05T04:55:55.961Z,89
2022-11-05T04:57:03.113Z,89
2022-11-05T04:58:10.195Z,89
2022-11-05T04:59:16.794Z,89
2022-11-05T05:00:23.888Z,89
2022-11-05T05:01:31.132Z,89
2022-11-05T05:02:38.103Z,89
2022-11-05T05:03:45.179Z,89
2022-11-05T05:04:51.752Z,89
2022-11-05T05:06:03.520Z,89
2022-11-05T05:07:06.026Z,89
2022-11-05T05:08:13.097Z,90
2022-11-05T05:09:20.227Z,90
2022-11-05T05:10:26.827Z,90
2022-11-05T05:12:43.890Z,90
2022-11-05T05:13:48.129Z,90
2022-11-05T05:14:55.187Z,90
2022-11-05T05:16:01.781Z,90
2022-11-05T05:17:08.961Z,90
2022-11-05T05:19:23.094Z,90
2022-11-05T05:20:29.712Z,90
2022-11-05T05:21:36.813Z,90
2022-11-05T05:22:43.917Z,90
2022-11-05T05:23:50.970Z,90
2022-11-05T05:24:58.093Z,90
2022-11-05T05:27:11.844Z,89
2022-11-05T05:28:18.926Z,89
2022-11-05T05:29:26.052Z,89
2022-11-05T05:30:33.080Z,89
2022-11-05T05:31:39.737Z,89
2022-11-05T05:32:46.762Z,89
2022-11-05T05:33:53.868Z,89
2022-11-05T05:35:01.037Z,89
2022-11-05T05:36:11.293Z,89
2022-11-05T05:37:15.406Z,89
2022-11-05T05:38:21.775Z,89
2022-11-05T05:39:28.886Z,89
2022-11-05T05:40:36.033Z,89
2022-11-05T05:41:43.154Z,89
2022-11-05T05:42:49.735Z,89
2022-11-05T05:43:56.839Z,89
2022-11-05T05:45:04.456Z,89
2022-11-05T05:46:10.993Z,89
2022-11-05T05:47:18.228Z,89
2022-11-05T05:48:24.760Z,88
2022-11-05T05:49:31.829Z,88
2022-11-05T05:50:38.975Z,88
2022-11-05T05:51:45.995Z,88
2022-11-05T05:53:59.773Z,88
2022-11-05T05:55:06.877Z,88
2022-11-05T05:56:14.015Z,88
2022-11-05T05:57:21.035Z,88
2022-11-05T05:58:28.141Z,88
2022-11-05T05:59:34.797Z,88
2022-11-05T06:00:41.815Z,88
2022-11-05T06:01:49.121Z,88
2022-11-05T06:02:56.144Z,88
2022-11-05T06:04:03.153Z,88
2022-11-05T06:05:09.750Z,88
2022-11-05T06:06:16.927Z,88
2022-11-05T06:07:23.976Z,88
2022-11-05T06:08:31.077Z,88
2022-11-05T06:09:38.203Z,88
2022-11-05T06:10:44.884Z,88
2022-11-05T06:11:51.870Z,88
2022-11-05T06:14:06.179Z,88
2022-11-05T06:15:13.129Z,88
2022-11-05T06:16:19.846Z,88
2022-11-05T06:17:26.837Z,88
2022-11-05T06:18:33.994Z,88
2022-11-05T06:19:41.084Z,88
2022-11-05T06:20:47.659Z,88
2022-11-05T06:21:54.855Z,88
2022-11-05T06:23:02.053Z,88
2022-11-05T06:24:09.013Z,88
2022-11-05T06:25:16.247Z,88
2022-11-05T06:26:23.249Z,88
2022-11-05T06:27:29.775Z,88
2022-11-05T06:28:36.887Z,88
2022-11-05T06:30:51.050Z,88
2022-11-05T06:31:58.303Z,88
2022-11-05T06:33:04.817Z,88
2022-11-05T06:35:18.997Z,88
2022-11-05T06:36:26.158Z,88
2022-11-05T06:37:33.165Z,88
2022-11-05T06:38:39.833Z,88
2022-11-05T06:39:46.896Z,88
2022-11-05T06:40:54.016Z,88
2022-11-05T06:42:17.861Z,88
2022-11-05T06:43:08.489Z,88
2022-11-05T06:44:14.794Z,88
2022-11-05T06:45:21.894Z,88
2022-11-05T06:46:29.073Z,88
2022-11-05T06:47:36.121Z,88
2022-11-05T06:49:50.843Z,88
2022-11-05T06:50:57.043Z,88
2022-11-05T06:52:04.100Z,88
2022-11-05T06:53:11.447Z,88
2022-11-05T06:54:17.699Z,88
2022-11-05T06:55:24.860Z,88
2022-11-05T06:56:31.924Z,88
2022-11-05T06:57:39.024Z,88
2022-11-05T06:58:46.129Z,88
2022-11-05T06:59:58.760Z,88
2022-11-05T07:00:59.931Z,88
2022-11-05T07:02:07.237Z,88
2022-11-05T07:03:14.604Z,88
2022-11-05T07:04:21.142Z,88
2022-11-05T07:05:27.735Z,88
2022-11-05T07:06:37.104Z,88
2022-11-05T07:07:41.935Z,88
2022-11-05T07:08:49.041Z,88
2022-11-05T07:09:56.195Z,88
2022-11-05T07:11:02.733Z,88
2022-11-05T07:12:09.911Z,88
2022-11-05T07:13:17.328Z,88
2022-11-05T07:14:24.055Z,88
2022-11-05T07:17:44.875Z,88
2022-11-05T07:18:51.934Z,88
2022-11-05T07:19:59.099Z,88
2022-11-05T07:21:06.155Z,88
2022-11-05T07:22:12.767Z,88
2022-11-05T07:23:19.859Z,88
2022-11-05T07:24:26.976Z,88
2022-11-05T07:25:34.092Z,88
2022-11-05T07:26:41.162Z,88
2022-11-05T07:27:47.854Z,88
2022-11-05T07:28:54.895Z,88
2022-11-05T07:30:01.922Z,88
2022-11-05T07:31:09.106Z,88
2022-11-05T07:32:16.261Z,88
2022-11-05T07:34:29.916Z,88
2022-11-05T07:35:36.965Z,88
2022-11-05T07:36:44.065Z,88
2022-11-05T07:37:51.191Z,88
2022-11-05T07:39:00.560Z,88
2022-11-05T07:40:04.914Z,88
2022-11-05T07:42:19.123Z,88
2022-11-05T07:43:26.221Z,87
2022-11-05T07:44:32.779Z,87
2022-11-05T07:45:39.927Z,87
2022-11-05T07:46:46.989Z,87
2022-11-05T07:47:54.121Z,87
2022-11-05T07:49:01.217Z,87
2022-11-05T07:50:07.820Z,87
2022-11-05T07:51:14.925Z,87
2022-11-05T07:52:22.561Z,87
2022-11-05T07:53:29.096Z,87
2022-11-05T07:54:36.224Z,87
2022-11-05T07:55:42.748Z,87
2022-11-05T07:57:57.035Z,87
2022-11-05T07:59:04.105Z,87
2022-11-05T08:00:11.204Z,87
2022-11-05T08:01:18.047Z,87
2022-11-05T08:02:25.209Z,87
2022-11-05T08:03:32.240Z,87
2022-11-05T08:04:39.139Z,87
2022-11-05T08:05:46.330Z,87
2022-11-05T08:06:52.805Z,87
2022-11-05T08:07:59.912Z,87
2022-11-05T08:09:07.063Z,87
2022-11-05T08:10:14.154Z,87
2022-11-05T08:11:21.225Z,87
2022-11-05T08:12:27.883Z,87
2022-11-05T08:13:34.897Z,87
2022-11-05T08:14:41.998Z,87
2022-11-05T08:15:49.087Z,87
2022-11-05T08:16:56.318Z,87
2022-11-05T08:18:03.393Z,87
2022-11-05T08:19:10.467Z,87
2022-11-05T08:20:17.079Z,87
2022-11-05T08:21:24.128Z,87
2022-11-05T08:22:30.771Z,87
2022-11-05T08:23:37.854Z,87
2022-11-05T08:24:44.978Z,87
2022-11-05T08:25:52.051Z,87
2022-11-05T08:26:59.309Z,87
2022-11-05T08:28:05.790Z,87
2022-11-05T08:29:12.806Z,87
2022-11-05T08:30:19.899Z,87
2022-11-05T08:31:27.127Z,87
2022-11-05T08:32:34.183Z,87
2022-11-05T08:33:40.735Z,87
2022-11-05T08:34:47.831Z,87
2022-11-05T08:35:54.943Z,87
2022-11-05T08:39:16.978Z,86
2022-11-05T08:40:22.822Z,86
2022-11-05T08:41:30.052Z,86
2022-11-05T08:42:37.185Z,86
2022-11-05T08:43:44.203Z,86
2022-11-05T08:44:50.744Z,86
2022-11-05T08:45:57.892Z,86
2022-11-05T08:48:12.092Z,86
2022-11-05T08:49:19.153Z,86
2022-11-05T08:50:25.766Z,86
2022-11-05T08:51:32.929Z,86
2022-11-05T08:52:39.975Z,86
2022-11-05T08:53:47.111Z,86
2022-11-05T08:54:54.174Z,86
2022-11-05T08:56:01.251Z,86
2022-11-05T08:57:07.932Z,86
2022-11-05T08:58:14.988Z,86
2022-11-05T08:59:22.041Z,86
2022-11-05T09:00:29.207Z,86
2022-11-05T09:01:36.061Z,86
2022-11-05T09:02:44.191Z,86
2022-11-05T09:03:50.055Z,86
2022-11-05T09:04:57.121Z,86
2022-11-05T09:06:04.202Z,86
2022-11-05T09:07:10.854Z,86
2022-11-05T09:08:17.936Z,86
2022-11-05T09:10:32.124Z,86
2022-11-05T09:12:09.851Z,86
2022-11-05T09:12:45.801Z,86
2022-11-05T09:13:52.915Z,86
2022-11-05T09:14:59.993Z,86
2022-11-05T09:16:07.148Z,86
2022-11-05T09:17:14.260Z,86
2022-11-05T09:18:20.799Z,86
2022-11-05T09:20:35.045Z,86
2022-11-05T09:21:42.180Z,86
2022-11-05T09:22:49.243Z,86
2022-11-05T09:23:55.844Z,86
2022-11-05T09:25:02.957Z,86
2022-11-05T09:26:10.033Z,86
2022-11-05T09:27:17.223Z,86
2022-11-05T09:28:24.252Z,86
2022-11-05T09:29:30.847Z,86
2022-11-05T09:30:37.950Z,86
2022-11-05T09:31:45.110Z,86
2022-11-05T09:32:52.137Z,86
2022-11-05T09:33:59.267Z,86
2022-11-05T09:35:05.877Z,86
2022-11-05T09:36:12.944Z,86
2022-11-05T09:37:20.112Z,86
2022-11-05T09:38:27.161Z,86
2022-11-05T09:39:34.275Z,86
2022-11-05T09:41:47.961Z,86
2022-11-05T09:44:02.103Z,86
2022-11-05T09:45:09.273Z,86
2022-11-05T09:46:16.380Z,86
2022-11-05T09:47:23.008Z,86
2022-11-05T09:48:30.030Z,86
2022-11-05T09:49:37.174Z,86
2022-11-05T09:50:43.741Z,86
2022-11-05T09:51:50.856Z,86
2022-11-05T09:52:57.948Z,87
2022-11-05T09:54:05.074Z,86
2022-11-05T09:55:12.161Z,86
2022-11-05T09:56:18.769Z,87
2022-11-05T09:57:26.001Z,87
2022-11-05T09:58:33.006Z,87
2022-11-05T09:59:40.590Z,87
2022-11-05T10:01:53.908Z,87
2022-11-05T10:03:00.811Z,87
2022-11-05T10:04:08.002Z,87
2022-11-05T10:05:15.155Z,87
2022-11-05T10:06:22.132Z,87
2022-11-05T10:07:28.798Z,87
2022-11-05T10:08:35.892Z,87
2022-11-05T10:09:42.974Z,87
2022-11-05T10:11:57.231Z,87
2022-11-05T10:13:03.787Z,87
2022-11-05T10:14:10.871Z,86
2022-11-05T10:15:18.000Z,86
2022-11-05T10:16:25.042Z,86
2022-11-05T10:17:37.882Z,86
2022-11-05T10:18:38.817Z,86
2022-11-05T10:19:45.895Z,86
2022-11-05T10:20:52.995Z,86
2022-11-05T10:22:06.550Z,86
2022-11-05T10:23:07.237Z,86
2022-11-05T10:24:13.784Z,86
2022-11-05T10:25:20.893Z,86
2022-11-05T10:26:28.026Z,86
2022-11-05T10:27:35.171Z,86
2022-11-05T10:28:42.177Z,86
2022-11-05T10:29:48.823Z,86
2022-11-05T10:30:55.916Z,86
2022-11-05T10:32:02.967Z,86
2022-11-05T10:33:10.540Z,86
2022-11-05T10:34:17.236Z,86
2022-11-05T10:35:23.793Z,86
2022-11-05T10:36:30.876Z,86
2022-11-05T10:39:52.275Z,86
2022-11-05T10:40:58.833Z,87
2022-11-05T10:43:13.374Z,86
2022-11-05T10:45:27.233Z,87
2022-11-05T10:46:33.813Z,87
2022-11-05T10:47:40.973Z,87
2022-11-05T10:48:48.055Z,87
2022-11-05T10:49:55.087Z,87
2022-11-05T10:51:01.723Z,87
2022-11-05T10:52:08.814Z,87
2022-11-05T10:53:15.970Z,87
2022-11-05T10:54:22.987Z,87
2022-11-05T10:55:30.153Z,87
2022-11-05T10:56:36.769Z,87
2022-11-05T10:57:43.894Z,87
2022-11-05T10:58:50.934Z,87
2022-11-05T10:59:59.139Z,87
2022-11-05T11:01:05.387Z,87
2022-11-05T11:02:11.793Z,87
2022-11-05T11:03:19.423Z,87
2022-11-05T11:04:25.934Z,87
2022-11-05T11:05:33.055Z,87
2022-11-05T11:07:46.809Z,87
2022-11-05T11:08:53.850Z,87
2022-11-05T11:10:00.974Z,87
2022-11-05T11:11:08.060Z,87
2022-11-05T11:12:15.227Z,87
2022-11-05T11:13:21.738Z,87
2022-11-05T11:14:29.536Z,87
2022-11-05T11:15:35.991Z,87
2022-11-05T11:16:43.054Z,87
2022-11-05T11:17:50.240Z,87
2022-11-05T11:18:56.805Z,87
2022-11-05T11:20:03.881Z,87
2022-11-05T11:21:10.946Z,87
2022-11-05T11:22:18.188Z,87
2022-11-05T11:24:33.534Z,87
2022-11-05T11:25:38.858Z,87
2022-11-05T11:26:45.932Z,87
2022-11-05T11:27:53.153Z,87
2022-11-05T11:29:00.212Z,88
2022-11-05T11:30:06.763Z,88
2022-11-05T11:31:13.869Z,88
2022-11-05T11:32:21.005Z,88
2022-11-05T11:33:28.108Z,88
2022-11-05T11:35:41.785Z,88
2022-11-05T11:36:48.964Z,88
2022-11-05T11:37:55.979Z,88
2022-11-05T11:39:03.065Z,88
2022-11-05T11:40:10.355Z,88
2022-11-05T11:41:18.378Z,88
2022-11-05T11:42:23.989Z,88
2022-11-05T11:43:31.001Z,88
2022-11-05T11:44:38.127Z,88
2022-11-05T11:45:45.250Z,88
2022-11-05T11:46:51.845Z,88
2022-11-05T11:49:06.158Z,88
2022-11-05T11:50:13.121Z,89
2022-11-05T11:51:20.260Z,89
2022-11-05T11:52:26.785Z,89
2022-11-05T11:53:33.907Z,89
2022-11-05T11:54:41.065Z,89
2022-11-05T11:55:48.112Z,89
2022-11-05T11:56:55.306Z,89
2022-11-05T11:58:01.836Z,89
2022-11-05T11:59:08.903Z,89
2022-11-05T12:00:16.226Z,89
2022-11-05T12:01:23.210Z,89
2022-11-05T12:03:36.774Z,89
2022-11-05T12:06:58.226Z,90
2022-11-05T12:08:04.760Z,90
2022-11-05T12:09:11.780Z,90
2022-11-05T12:10:18.953Z,90
2022-11-05T12:11:26.077Z,91
2022-11-05T12:12:33.112Z,91
2022-11-05T12:13:39.709Z,91
2022-11-05T12:14:46.983Z,91
2022-11-05T12:15:53.986Z,91
2022-11-05T12:17:01.127Z,91
2022-11-05T12:18:08.146Z,91
2022-11-05T12:19:14.784Z,92
2022-11-05T12:20:21.860Z,92
2022-11-05T12:21:50.956Z,92
2022-11-05T12:22:37.064Z,92
2022-11-05T12:23:43.185Z,92
2022-11-05T12:24:49.789Z,92
2022-11-05T12:25:56.847Z,92
2022-11-05T12:27:04.037Z,92
2022-11-05T12:28:11.057Z,92
2022-11-05T12:29:19.271Z,92
2022-11-05T12:30:24.777Z,92
2022-11-05T12:31:31.865Z,92
2022-11-05T12:32:39.109Z,92
2022-11-05T12:33:46.060Z,92
2022-11-05T12:34:53.179Z,92
2022-11-05T12:35:59.791Z,93
2022-11-05T12:37:07.964Z,93
2022-11-05T12:38:13.973Z,93
2022-11-05T12:39:21.100Z,93
2022-11-05T12:40:28.168Z,93
2022-11-05T12:41:34.795Z,93
2022-11-05T12:42:44.045Z,93
2022-11-05T12:43:49.046Z,93
2022-11-05T12:44:56.103Z,93
2022-11-05T12:47:09.770Z,93
2022-11-05T12:48:16.876Z,94
2022-11-05T12:49:24.002Z,94
2022-11-05T12:50:31.105Z,94
2022-11-05T12:52:44.894Z,95
2022-11-05T12:53:51.844Z,95
2022-11-05T12:54:58.974Z,95
2022-11-05T12:56:06.129Z,96
2022-11-05T12:57:13.275Z,96
2022-11-05T12:58:19.793Z,96
2022-11-05T12:59:26.966Z,96
2022-11-05T13:00:33.984Z,96
2022-11-05T13:01:41.161Z,96
2022-11-05T13:02:47.722Z,96
2022-11-05T13:03:55.907Z,96
2022-11-05T13:05:02.433Z,96
2022-11-05T13:06:08.996Z,96
2022-11-05T13:07:16.107Z,96
2022-11-05T13:08:23.174Z,96
2022-11-05T13:09:29.867Z,96
2022-11-05T13:10:37.573Z,96
2022-11-05T13:11:44.065Z,96
2022-11-05T13:12:51.133Z,97
2022-11-05T13:13:57.887Z,96
2022-11-05T13:15:04.872Z,97
2022-11-05T13:16:11.988Z,97
2022-11-05T13:17:19.061Z,97
2022-11-05T13:18:26.166Z,98
2022-11-05T13:19:32.729Z,98
2022-11-05T13:20:39.861Z,97
2022-11-05T13:21:46.973Z,98
2022-11-05T13:22:54.055Z,98
2022-11-05T13:24:01.093Z,97
2022-11-05T13:25:07.888Z,98
2022-11-05T13:26:19.513Z,97
2022-11-05T13:28:29.052Z,98
2022-11-05T13:29:36.180Z,98
2022-11-05T13:30:42.734Z,98
2022-11-05T13:31:49.815Z,98
2022-11-05T13:35:11.230Z,98
2022-11-05T13:36:17.773Z,98
2022-11-05T13:37:24.897Z,98
2022-11-05T13:38:31.994Z,98
2022-11-05T13:39:39.085Z,98
2022-11-05T13:40:46.205Z,98
2022-11-05T13:41:52.825Z,98
2022-11-05T13:42:59.963Z,98
2022-11-05T13:44:06.936Z,98
2022-11-05T13:45:14.653Z,98
2022-11-05T13:46:21.236Z,98
2022-11-05T13:47:27.739Z,98
2022-11-05T13:48:34.892Z,98
2022-11-05T13:49:41.928Z,98
2022-11-05T13:50:49.108Z,98
2022-11-05T13:51:56.205Z,98
2022-11-05T13:53:02.914Z,98
2022-11-05T13:54:09.910Z,98
2022-11-05T13:56:24.058Z,98
2022-11-05T13:57:31.148Z,98
2022-11-05T13:58:37.815Z,98
2022-11-05T13:59:44.926Z,98
2022-11-05T14:00:51.477Z,100
2022-11-05T14:01:59.233Z,100
2022-11-05T14:03:06.295Z,100
2022-11-05T14:04:12.768Z,100
2022-11-05T14:05:19.919Z,100
2022-11-05T14:06:27.015Z,100
2022-11-05T14:07:34.216Z,100
2022-11-05T14:09:47.790Z,100
2022-11-05T14:10:55.445Z,100
2022-11-05T14:12:02.068Z,100
2022-11-05T14:13:09.467Z,100
2022-11-05T14:14:16.253Z,100
2022-11-05T14:15:22.790Z,100
2022-11-05T14:16:29.947Z,100
2022-11-05T14:17:37.112Z,100
2022-11-05T14:18:44.218Z,100
2022-11-05T14:19:51.167Z,100
2022-11-05T14:20:57.829Z,100
2022-11-05T14:22:04.883Z,100
2022-11-05T14:23:12.405Z,100
2022-11-05T14:24:19.284Z,100
2022-11-05T14:25:26.203Z,100
2022-11-05T14:26:33.805Z,100
2022-11-05T14:27:39.937Z,100
2022-11-05T14:29:54.190Z,100
2022-11-05T14:31:00.715Z,100
2022-11-05T14:32:09.676Z,100
2022-11-05T14:33:15.133Z,100
2022-11-05T14:34:21.976Z,99
2022-11-05T14:35:29.156Z,100
2022-11-05T14:36:35.795Z,99
2022-11-05T14:37:42.888Z,100
2022-11-05T14:38:49.905Z,99
2022-11-05T14:39:57.017Z,99
2022-11-05T14:41:04.158Z,99
2022-11-05T14:42:10.671Z,99
2022-11-05T14:43:17.858Z,99
2022-11-05T14:44:24.993Z,99
2022-11-05T14:45:32.024Z,99
2022-11-05T14:46:39.138Z,99
2022-11-05T14:47:45.812Z,99
2022-11-05T14:48:52.867Z,99
2022-11-05T14:49:59.999Z,99
2022-11-05T14:51:07.108Z,99
2022-11-05T14:52:14.193Z,98
2022-11-05T14:53:20.722Z,98
2022-11-05T14:54:27.902Z,98
2022-11-05T14:55:34.985Z,98
2022-11-05T14:56:42.027Z,97
2022-11-05T14:57:49.255Z,97
2022-11-05T15:00:02.850Z,96
2022-11-05T15:01:10.150Z,96
2022-11-05T15:03:24.258Z,95
2022-11-05T15:04:30.759Z,94
2022-11-05T15:05:37.885Z,94
2022-11-05T15:06:45.007Z,94
2022-11-05T15:07:52.645Z,94
2022-11-05T15:08:59.213Z,94
2022-11-05T15:10:10.103Z,94
2022-11-05T15:11:12.874Z,93
2022-11-05T15:12:20.037Z,93
2022-11-05T15:13:27.065Z,93
2022-11-05T15:14:34.228Z,93
2022-11-05T15:15:40.805Z,93
2022-11-05T15:16:47.949Z,93
2022-11-05T15:17:55.035Z,93
2022-11-05T15:19:02.151Z,93
2022-11-05T15:20:09.172Z,93
2022-11-05T15:21:15.835Z,93
2022-11-05T15:22:22.837Z,93
2022-11-05T15:23:30.015Z,93
2022-11-05T15:25:47.740Z,92
2022-11-05T15:26:50.802Z,92
2022-11-05T15:27:57.943Z,92
2022-11-05T15:29:05.008Z,92
2022-11-05T15:30:12.102Z,92
2022-11-05T15:31:19.177Z,91
2022-11-05T15:32:25.888Z,91
2022-11-05T15:33:32.854Z,91
2022-11-05T15:34:40.058Z,91
2022-11-05T15:35:47.096Z,91
2022-11-05T15:36:53.647Z,91
2022-11-05T15:38:02.426Z,91
2022-11-05T15:39:28.598Z,91
2022-11-05T15:40:15.031Z,91
2022-11-05T15:41:22.157Z,91
2022-11-05T15:42:29.291Z,91
2022-11-05T15:43:35.852Z,90
2022-11-05T15:44:42.945Z,90
2022-11-05T15:45:50.082Z,90
2022-11-05T15:46:57.118Z,90
2022-11-05T15:48:03.737Z,90
2022-11-05T15:49:10.777Z,90
2022-11-05T15:50:17.917Z,90
2022-11-05T15:51:25.062Z,91
2022-11-05T15:52:31.709Z,91
2022-11-05T15:54:01.800Z,91
2022-11-05T15:54:45.825Z,91
2022-11-05T15:55:52.964Z,91
2022-11-05T15:57:00.017Z,91
2022-11-05T15:58:07.181Z,91
2022-11-05T15:59:13.762Z,91
2022-11-05T16:00:20.878Z,90
2022-11-05T16:01:29.203Z,90
2022-11-05T16:03:42.204Z,90
2022-11-05T16:04:48.817Z,90
2022-11-05T16:05:55.934Z,90
2022-11-05T16:07:02.999Z,90
2022-11-05T16:08:10.110Z,90
2022-11-05T16:09:17.253Z,90
2022-11-05T16:10:23.686Z,90
2022-11-05T16:11:30.791Z,90
2022-11-05T16:12:38.086Z,90
2022-11-05T16:13:45.092Z,90
2022-11-05T16:14:52.200Z,90
2022-11-05T16:15:58.808Z,89
2022-11-05T16:17:05.834Z,89
2022-11-05T16:18:13.127Z,89
2022-11-05T16:19:20.045Z,89
2022-11-05T16:21:34.255Z,89
2022-11-05T16:22:43.989Z,90
2022-11-05T16:23:48.045Z,89
2022-11-05T16:24:55.113Z,89
2022-11-05T16:26:02.228Z,89
2022-11-05T16:27:08.759Z,89
2022-11-05T16:28:16.044Z,89
2022-11-05T16:29:23.005Z,89
2022-11-05T16:31:37.154Z,89
2022-11-05T16:32:44.202Z,89
2022-11-05T16:33:50.896Z,89
2022-11-05T16:34:58.054Z,89
2022-11-05T16:36:05.034Z,89
2022-11-05T16:37:12.283Z,89
2022-11-05T16:38:18.913Z,89
2022-11-05T16:39:25.994Z,90
2022-11-05T16:40:32.940Z,89
2022-11-05T16:41:40.199Z,90
2022-11-05T16:42:46.643Z,89
2022-11-05T16:43:53.803Z,90
2022-11-05T16:45:00.838Z,89
2022-11-05T16:46:08.075Z,90
2022-11-05T16:47:15.224Z,89
2022-11-05T16:49:29.000Z,89
2022-11-05T16:50:35.891Z,89
2022-11-05T16:51:43.064Z,89
2022-11-05T16:52:50.151Z,89
2022-11-05T16:53:56.740Z,89
2022-11-05T16:55:03.810Z,89
2022-11-05T16:56:10.855Z,89
2022-11-05T16:57:18.077Z,89
2022-11-05T16:58:25.221Z,89
2022-11-05T16:59:31.725Z,89
2022-11-05T17:00:38.885Z,89
2022-11-05T17:01:48.241Z,89
2022-11-05T17:02:53.192Z,89
2022-11-05T17:04:00.154Z,89
2022-11-05T17:05:06.771Z,89
2022-11-05T17:07:21.394Z,89
2022-11-05T17:08:28.031Z,89
2022-11-05T17:09:35.162Z,89
2022-11-05T17:10:41.718Z,89
2022-11-05T17:11:49.438Z,89
2022-11-05T17:12:56.027Z,89
2022-11-05T17:14:03.042Z,89